Terminal Aerodrome Forecast
Issued by NWS Green Bay, WI

Home | Current Version | Previous Version | Graphics & Text | Print | Product List | Glossary On
Versions: 1 2 3 4 5 6 7 8 9 10 11 12 13 14 15 16 17 18 19 20 21 22 23 24 25 26 27 28 29 30 31 32 33 34
238
FTUS43 KGRB 281629 AAA
TAFGRB
TAF AMD
KGRB 281629Z 2816/2912 24009G14KT P6SM BKN035
      TEMPO 2816/2819 SCT035 SCT070
     FM282000 26007KT P6SM BKN060
     FM290000 32004KT P6SM BKN050
     FM290300 01007KT P6SM BKN100=

USA.gov is the U.S. government's official web portal to all federal, state and local government web resources and services.